Time;durP1;ratioP1;P1;durP2;ratioP2;P2;SDS_P1;SDS_P2;PMS_P1;PMS_P2;Temp;Humidity;BMP_temperature;BMP_pressure;BME280_temperature;BME280_humidity;BME280_pressure;Samples;Min_cycle;Max_cycle;Signal;HPM_P1;HPM_P2
2022/11/08 00:01:33;;;;;;;;;;;;;;;7.17;88.34;100624.92;116135;1306;22792;-72
2022/11/08 00:04:23;;;;;;;;;;;;;;;7.28;88.51;100621.07;116309;1304;22451;-72
2022/11/08 00:16:34;;;;;;;;;;;;;;;7.42;88.01;100619.19;116298;1300;22451;-72
2022/11/08 00:19:24;;;;;;;;;;;;;;;7.41;87.91;100621.14;116309;1301;22481;-72
2022/11/08 00:22:13;;;;;;;;;;;;;;;7.39;87.86;100620.65;116327;1299;25853;-73
2022/11/08 00:25:00;;;;;;;;;;;;;;;7.35;87.73;100618.48;116352;1303;22440;-73
2022/11/08 00:27:47;;;;;;;;;;;;;;;7.34;87.85;100622.15;116296;1304;22460;-74
2022/11/08 00:30:39;;;;;;;;;;;;;;;7.36;87.80;100620.36;116256;1297;22468;-74
2022/11/08 00:33:26;;;;;;;;;;;;;;;7.43;87.99;100622.48;116162;1304;22501;-73
2022/11/08 00:36:16;;;;;;;;;;;;;;;7.52;88.04;100626.29;116273;1304;22581;-74
2022/11/08 00:39:06;;;;;;;;;;;;;;;7.61;88.03;100625.91;116308;1304;22519;-73
2022/11/08 00:41:58;;;;;;;;;;;;;;;7.69;88.00;100626.44;116301;1299;25356;-73
2022/11/08 00:44:45;;;;;;;;;;;;;;;7.73;87.72;100626.16;116284;1275;24383;-73
2022/11/08 00:47:32;;;;;;;;;;;;;;;7.71;87.56;100625.86;116271;1305;22435;-73
2022/11/08 00:50:19;;;;;;;;;;;;;;;7.70;87.42;100625.02;116301;1306;22394;-73
2022/11/08 00:53:08;;;;;;;;;;;;;;;7.67;87.44;100625.95;116292;1284;22520;-73
2022/11/08 00:56:01;;;;;;;;;;;;;;;7.63;87.38;100623.28;116299;1286;22457;-74
2022/11/08 00:58:50;;;;;;;;;;;;;;;7.58;87.43;100622.33;116047;1289;370160;-74
2022/11/08 01:01:39;;;;;;;;;;;;;;;7.54;87.39;100622.27;116321;1284;22590;-74
2022/11/08 01:04:27;;;;;;;;;;;;;;;7.50;87.45;100621.12;116320;1293;22441;-74
2022/11/08 01:07:17;;;;;;;;;;;;;;;7.52;87.42;100625.42;116278;1304;22476;-74
2022/11/08 01:10:05;;;;;;;;;;;;;;;7.55;87.48;100622.56;116290;1304;22434;-73
2022/11/08 01:12:56;;;;;;;;;;;;;;;7.64;87.84;100622.55;116284;1286;22467;-73
2022/11/08 01:15:46;;;;;;;;;;;;;;;7.73;87.84;100620.08;116268;1304;24289;-74
2022/11/08 01:18:33;;;;;;;;;;;;;;;7.82;87.87;100616.59;116320;1303;22457;-74
2022/11/08 01:21:21;;;;;;;;;;;;;;;7.88;87.86;100616.45;116123;1306;22479;-73
2022/11/08 01:24:10;;;;;;;;;;;;;;;7.92;87.82;100616.52;116313;1296;22435;-73
2022/11/08 01:26:59;;;;;;;;;;;;;;;7.93;87.55;100610.42;116280;1294;22544;-75
2022/11/08 01:29:47;;;;;;;;;;;;;;;7.92;87.51;100614.79;116284;1304;22460;-75
2022/11/08 01:32:34;;;;;;;;;;;;;;;7.90;87.37;100609.45;116295;1292;22444;-73
2022/11/08 01:35:21;;;;;;;;;;;;;;;7.92;87.22;100609.07;116291;1299;22453;-72
2022/11/08 01:38:10;;;;;;;;;;;;;;;7.97;87.29;100612.09;116292;1306;24275;-72
2022/11/08 01:40:58;;;;;;;;;;;;;;;8.04;87.26;100607.91;116265;1304;22458;-72
2022/11/08 01:43:49;;;;;;;;;;;;;;;8.06;87.26;100609.77;116271;1299;22444;-73
2022/11/08 01:46:41;;;;;;;;;;;;;;;8.11;87.36;100611.91;116262;1294;22525;-72
2022/11/08 01:49:31;;;;;;;;;;;;;;;8.15;87.35;100611.47;116285;1305;22858;-73
2022/11/08 01:52:27;;;;;;;;;;;;;;;8.14;87.03;100608.88;116290;1288;25351;-73
2022/11/08 01:55:19;;;;;;;;;;;;;;;8.11;86.98;100609.30;116317;1304;22435;-75
2022/11/08 01:58:10;;;;;;;;;;;;;;;8.08;86.91;100608.16;116317;1294;22413;-74
2022/11/08 02:01:00;;;;;;;;;;;;;;;8.06;86.97;100607.35;116314;1304;25388;-74
2022/11/08 02:03:49;;;;;;;;;;;;;;;8.02;86.76;100608.83;116316;1291;22452;-74
2022/11/08 02:06:38;;;;;;;;;;;;;;;8.02;86.90;100609.86;116256;1304;24244;-74
2022/11/08 02:09:27;;;;;;;;;;;;;;;8.05;86.97;100609.80;116325;1304;22481;-74
2022/11/08 02:12:20;;;;;;;;;;;;;;;8.11;87.03;100609.66;116274;1304;22553;-74
2022/11/08 02:15:13;;;;;;;;;;;;;;;8.18;87.15;100602.20;116313;1298;24293;-74
2022/11/08 02:18:02;;;;;;;;;;;;;;;8.24;87.33;100600.47;116304;1304;22464;-74
2022/11/08 02:20:57;;;;;;;;;;;;;;;8.30;87.30;100599.98;116277;1286;22452;-74
2022/11/08 02:23:47;;;;;;;;;;;;;;;8.33;87.01;100599.40;116311;1286;22484;-75
2022/11/08 02:26:35;;;;;;;;;;;;;;;8.33;86.98;100599.21;116284;1286;22459;-74
2022/11/08 02:29:27;;;;;;;;;;;;;;;8.33;86.92;100601.65;116291;1298;22448;-74
2022/11/08 02:32:14;;;;;;;;;;;;;;;8.29;86.56;100604.70;116302;1300;22399;-74
2022/11/08 02:35:08;;;;;;;;;;;;;;;8.25;86.62;100603.56;116337;1306;22442;-73
2022/11/08 02:37:56;;;;;;;;;;;;;;;8.22;86.70;100606.25;116250;1295;22443;-75
2022/11/08 02:40:52;;;;;;;;;;;;;;;8.21;86.70;100603.33;116287;1304;22457;-72
2022/11/08 02:43:40;;;;;;;;;;;;;;;8.23;86.63;100601.54;116339;1304;22442;-72
2022/11/08 02:46:27;;;;;;;;;;;;;;;8.27;86.61;100601.27;116289;1304;22479;-73
2022/11/08 02:49:16;;;;;;;;;;;;;;;8.32;86.63;100594.37;116337;1298;22510;-74
2022/11/08 02:52:09;;;;;;;;;;;;;;;8.40;86.77;100596.10;116289;1287;27522;-75
2022/11/08 02:54:57;;;;;;;;;;;;;;;8.47;86.76;100599.92;116317;1285;22454;-73
2022/11/08 02:57:44;;;;;;;;;;;;;;;8.52;86.74;100600.85;116285;1304;22544;-73
2022/11/08 03:00:32;;;;;;;;;;;;;;;8.53;86.58;100603.44;116308;1287;22461;-72
2022/11/08 03:03:19;;;;;;;;;;;;;;;8.51;86.42;100602.94;116285;1298;22461;-72
2022/11/08 03:06:07;;;;;;;;;;;;;;;8.48;86.28;100599.38;116250;1304;22455;-72
2022/11/08 03:08:54;;;;;;;;;;;;;;;8.45;86.23;100601.90;116298;1298;22444;-73
2022/11/08 03:11:41;;;;;;;;;;;;;;;8.41;86.23;100604.44;116287;1294;22512;-72
2022/11/08 03:14:31;;;;;;;;;;;;;;;8.36;86.17;100610.09;116309;1301;22454;-75
2022/11/08 03:17:18;;;;;;;;;;;;;;;8.33;86.16;100612.43;116264;1304;23304;-74
2022/11/08 03:20:07;;;;;;;;;;;;;;;8.33;86.20;100611.04;116318;1304;22441;-75
2022/11/08 03:23:00;;;;;;;;;;;;;;;8.35;86.10;100610.65;116282;1294;22491;-75
2022/11/08 03:25:48;;;;;;;;;;;;;;;8.39;86.28;100609.00;116300;1284;22409;-73
2022/11/08 03:28:35;;;;;;;;;;;;;;;8.46;86.48;100614.04;116293;1304;22516;-73
2022/11/08 03:31:22;;;;;;;;;;;;;;;8.46;86.02;100612.98;116289;1304;22462;-75
2022/11/08 03:34:13;;;;;;;;;;;;;;;8.43;85.94;100612.04;116325;1285;25219;-74
2022/11/08 03:37:03;;;;;;;;;;;;;;;8.36;85.88;100614.09;116292;1304;22455;-73
2022/11/08 03:39:50;;;;;;;;;;;;;;;8.32;86.03;100616.45;116326;1304;22515;-73
2022/11/08 03:42:40;;;;;;;;;;;;;;;8.29;86.10;100614.96;116277;1283;22418;-75
2022/11/08 03:45:30;;;;;;;;;;;;;;;8.25;86.10;100622.17;116308;1304;24324;-73
2022/11/08 03:48:22;;;;;;;;;;;;;;;8.20;86.13;100629.23;116267;1306;22910;-74
2022/11/08 03:51:09;;;;;;;;;;;;;;;8.16;86.13;100631.25;116268;1305;25964;-75
2022/11/08 03:53:57;;;;;;;;;;;;;;;8.11;86.18;100626.85;116313;1304;22461;-73
2022/11/08 03:56:44;;;;;;;;;;;;;;;8.11;86.29;100626.86;116275;1304;24355;-75
2022/11/08 03:59:32;;;;;;;;;;;;;;;8.14;86.42;100631.13;116298;1304;22466;-75
2022/11/08 04:02:19;;;;;;;;;;;;;;;8.21;86.61;100629.23;116253;1297;25363;-73
2022/11/08 04:05:06;;;;;;;;;;;;;;;8.28;86.77;100627.16;116292;1294;22444;-73
2022/11/08 04:07:56;;;;;;;;;;;;;;;8.30;86.55;100621.52;116315;1292;24389;-74
2022/11/08 04:10:45;;;;;;;;;;;;;;;8.33;86.59;100615.39;116257;1293;22445;-73
2022/11/08 04:16:39;;;;;;;;;;;;;;;8.31;86.39;100612.83;116288;1304;22462;-74
2022/11/08 04:22:33;;;;;;;;;;;;;;;8.22;86.32;100614.61;116299;1298;25237;-74
2022/11/08 04:25:20;;;;;;;;;;;;;;;8.17;86.38;100613.67;116333;1304;22457;-74
2022/11/08 04:28:08;;;;;;;;;;;;;;;8.17;86.37;100611.77;116344;1304;22453;-74
2022/11/08 04:30:59;;;;;;;;;;;;;;;8.19;86.39;100610.70;116279;1304;22391;-74
2022/11/08 04:33:49;;;;;;;;;;;;;;;8.22;86.44;100613.73;116306;1300;23667;-74
2022/11/08 04:36:36;;;;;;;;;;;;;;;8.26;86.60;100613.45;116340;1298;22574;-74
2022/11/08 04:39:23;;;;;;;;;;;;;;;8.30;86.47;100608.85;116302;1292;22408;-73
2022/11/08 04:42:10;;;;;;;;;;;;;;;8.30;86.41;100606.94;116274;1284;22440;-73
2022/11/08 04:45:00;;;;;;;;;;;;;;;8.28;86.33;100604.91;116306;1285;22448;-73
2022/11/08 04:47:49;;;;;;;;;;;;;;;8.23;86.07;100608.67;116290;1283;22457;-72
2022/11/08 04:50:41;;;;;;;;;;;;;;;8.13;85.90;100607.88;116279;1287;25366;-73
2022/11/08 04:53:30;;;;;;;;;;;;;;;8.02;85.88;100609.20;116182;1287;22502;-73
2022/11/08 04:56:19;;;;;;;;;;;;;;;7.92;85.88;100611.67;116287;1305;22593;-73
2022/11/08 04:59:12;;;;;;;;;;;;;;;7.81;85.94;100610.20;116315;1297;22440;-74
2022/11/08 05:02:01;;;;;;;;;;;;;;;7.70;85.87;100606.96;116293;1287;22463;-74
2022/11/08 05:04:48;;;;;;;;;;;;;;;7.64;86.22;100606.41;116300;1285;25245;-73
2022/11/08 05:07:36;;;;;;;;;;;;;;;7.64;86.48;100611.42;116293;1287;22447;-72
2022/11/08 05:10:24;;;;;;;;;;;;;;;7.65;86.59;100615.77;116306;1282;22452;-73
2022/11/08 05:13:11;;;;;;;;;;;;;;;7.63;86.76;100611.29;116304;1304;22476;-73
2022/11/08 05:16:01;;;;;;;;;;;;;;;7.59;86.52;100611.02;116281;1298;22479;-72
2022/11/08 05:18:50;;;;;;;;;;;;;;;7.55;86.72;100607.66;116160;1299;22440;-73
2022/11/08 05:24:45;;;;;;;;;;;;;;;7.40;86.86;100615.94;116346;1290;22474;-72
2022/11/08 05:27:32;;;;;;;;;;;;;;;7.32;86.96;100616.64;116290;1299;22472;-72
2022/11/08 05:30:19;;;;;;;;;;;;;;;7.23;87.05;100623.75;116166;1301;22508;-72
2022/11/08 05:33:06;;;;;;;;;;;;;;;7.17;86.96;100625.95;116324;1304;22447;-72
2022/11/08 05:35:56;;;;;;;;;;;;;;;7.14;87.05;100629.84;116286;1284;22457;-73
2022/11/08 05:38:45;;;;;;;;;;;;;;;7.13;87.21;100627.59;116286;1304;22439;-72
2022/11/08 05:41:32;;;;;;;;;;;;;;;7.11;87.27;100627.48;116280;1283;25356;-72
2022/11/08 05:44:23;;;;;;;;;;;;;;;7.11;87.63;100630.07;116354;1304;22433;-73
2022/11/08 05:47:12;;;;;;;;;;;;;;;7.13;87.95;100632.80;116271;1304;22439;-73
2022/11/08 05:50:02;;;;;;;;;;;;;;;7.12;88.00;100634.04;116315;1298;22413;-74
2022/11/08 05:52:53;;;;;;;;;;;;;;;7.13;88.07;100632.45;116109;1305;25394;-72
2022/11/08 05:55:41;;;;;;;;;;;;;;;7.13;88.36;100631.77;116190;1304;22443;-73
2022/11/08 05:58:29;;;;;;;;;;;;;;;7.16;88.55;100633.96;116330;1304;22444;-72
2022/11/08 06:01:21;;;;;;;;;;;;;;;7.18;88.71;100636.17;116285;1285;25429;-72
2022/11/08 06:04:09;;;;;;;;;;;;;;;7.19;88.89;100637.20;116308;1284;22471;-72
2022/11/08 06:06:56;;;;;;;;;;;;;;;7.22;88.77;100636.44;116265;1293;22483;-73
2022/11/08 06:09:48;;;;;;;;;;;;;;;7.29;88.85;100636.49;116276;1293;22439;-72
2022/11/08 06:12:36;;;;;;;;;;;;;;;7.38;88.92;100636.29;116249;1294;25194;-72
2022/11/08 06:15:24;;;;;;;;;;;;;;;7.50;89.12;100637.77;116168;1305;22407;-72
2022/11/08 06:18:12;;;;;;;;;;;;;;;7.63;89.24;100638.90;116279;1304;22536;-73
2022/11/08 06:20:59;;;;;;;;;;;;;;;7.71;88.93;100640.09;116267;1305;22382;-74
2022/11/08 06:23:46;;;;;;;;;;;;;;;7.76;88.86;100642.45;116154;1294;22569;-74
2022/11/08 06:26:34;;;;;;;;;;;;;;;7.81;88.80;100646.14;116248;1304;22509;-74
2022/11/08 06:29:23;;;;;;;;;;;;;;;7.85;88.76;100646.23;116286;1304;22462;-72
2022/11/08 06:32:13;;;;;;;;;;;;;;;7.95;88.95;100645.48;116251;1304;22537;-73
2022/11/08 06:35:00;;;;;;;;;;;;;;;8.11;89.34;100647.35;116319;1287;22450;-72
2022/11/08 06:37:48;;;;;;;;;;;;;;;8.25;89.01;100649.98;116267;1304;22403;-72
2022/11/08 06:40:39;;;;;;;;;;;;;;;8.43;88.48;100646.28;116307;1304;22664;-72
2022/11/08 06:43:27;;;;;;;;;;;;;;;8.60;88.27;100649.67;116337;1304;24296;-72
2022/11/08 06:46:16;;;;;;;;;;;;;;;8.67;87.78;100647.08;116273;1304;22450;-73
2022/11/08 06:49:04;;;;;;;;;;;;;;;8.70;87.38;100645.25;116288;1306;22402;-73
2022/11/08 06:51:51;;;;;;;;;;;;;;;8.72;87.05;100651.46;116309;1278;22456;-74
2022/11/08 06:54:38;;;;;;;;;;;;;;;8.75;87.07;100649.11;116321;1279;22442;-74
2022/11/08 06:57:25;;;;;;;;;;;;;;;8.75;86.59;100650.50;116269;1304;22456;-73
2022/11/08 07:00:17;;;;;;;;;;;;;;;8.72;86.48;100656.66;116307;1304;22474;-72
2022/11/08 07:03:07;;;;;;;;;;;;;;;8.70;86.44;100653.95;116278;1285;22531;-75
2022/11/08 07:05:57;;;;;;;;;;;;;;;8.72;86.53;100661.55;116279;1298;22461;-74
2022/11/08 07:08:44;;;;;;;;;;;;;;;8.75;86.69;100664.94;116306;1304;22555;-73
2022/11/08 07:11:31;;;;;;;;;;;;;;;8.78;86.60;100663.84;116303;1290;25246;-74
2022/11/08 07:14:18;;;;;;;;;;;;;;;8.81;86.55;100666.86;116324;1278;24911;-72
2022/11/08 07:17:09;;;;;;;;;;;;;;;8.84;86.64;100667.17;116282;1304;22436;-74
2022/11/08 07:19:58;;;;;;;;;;;;;;;8.88;86.65;100673.47;116318;1304;22481;-74
2022/11/08 07:22:48;;;;;;;;;;;;;;;8.94;86.65;100677.16;116294;1298;22492;-74
2022/11/08 07:25:40;;;;;;;;;;;;;;;9.05;86.59;100677.21;116272;1304;22402;-72
2022/11/08 07:28:29;;;;;;;;;;;;;;;9.26;86.78;100674.71;116257;1304;22591;-72
2022/11/08 07:31:18;;;;;;;;;;;;;;;9.84;87.47;100671.63;116274;1293;25261;-74
2022/11/08 07:34:07;;;;;;;;;;;;;;;10.59;87.52;100674.02;116304;1291;24363;-73
2022/11/08 07:36:55;;;;;;;;;;;;;;;11.05;85.86;100666.83;116310;1304;22523;-73
2022/11/08 07:39:42;;;;;;;;;;;;;;;11.43;85.28;100669.67;116252;1284;22607;-74
2022/11/08 07:42:29;;;;;;;;;;;;;;;11.88;83.98;100670.09;116293;1292;25206;-73
2022/11/08 07:45:16;;;;;;;;;;;;;;;12.31;82.57;100668.59;116284;1278;22439;-72
2022/11/08 07:48:05;;;;;;;;;;;;;;;12.63;81.13;100668.85;116314;1304;22423;-72
2022/11/08 07:50:53;;;;;;;;;;;;;;;13.06;79.84;100666.67;116137;1288;22453;-72
2022/11/08 07:53:40;;;;;;;;;;;;;;;13.66;78.03;100666.11;116285;1304;22469;-72
2022/11/08 07:56:27;;;;;;;;;;;;;;;14.20;76.12;100666.88;116284;1297;22441;-74
2022/11/08 07:59:14;;;;;;;;;;;;;;;14.79;74.79;100666.08;116282;1304;22388;-73
2022/11/08 08:02:03;;;;;;;;;;;;;;;15.31;71.84;100658.96;116269;1298;22483;-73
2022/11/08 08:04:50;;;;;;;;;;;;;;;15.77;71.22;100658.33;116321;1287;22450;-73
2022/11/08 08:07:38;;;;;;;;;;;;;;;15.99;69.92;100655.48;116265;1273;22454;-73
2022/11/08 08:10:25;;;;;;;;;;;;;;;15.80;68.89;100653.59;116309;1304;22438;-73
2022/11/08 08:13:12;;;;;;;;;;;;;;;15.41;68.45;100654.05;116318;1298;25417;-72
2022/11/08 08:16:03;;;;;;;;;;;;;;;15.03;68.46;100650.66;116267;1304;22463;-74
2022/11/08 08:18:51;;;;;;;;;;;;;;;14.66;68.58;100656.06;116305;1301;22450;-72
2022/11/08 08:21:41;;;;;;;;;;;;;;;14.34;69.29;100660.06;116274;1284;22427;-73
2022/11/08 08:24:28;;;;;;;;;;;;;;;14.09;70.01;100659.67;116301;1283;25226;-73
2022/11/08 08:27:17;;;;;;;;;;;;;;;14.01;70.98;100661.13;116270;1298;22460;-75
2022/11/08 08:30:09;;;;;;;;;;;;;;;14.18;71.70;100658.01;116299;1298;22496;-72
2022/11/08 08:33:06;;;;;;;;;;;;;;;14.58;71.35;100656.95;116245;1304;22463;-73
2022/11/08 08:35:55;;;;;;;;;;;;;;;15.11;70.43;100653.21;116245;1284;22464;-74
2022/11/08 08:38:42;;;;;;;;;;;;;;;15.40;69.64;100653.77;116300;1304;22450;-73
2022/11/08 08:41:33;;;;;;;;;;;;;;;15.43;68.30;100653.63;116259;1299;22465;-72
2022/11/08 08:44:20;;;;;;;;;;;;;;;15.39;67.42;100651.71;116287;1294;22497;-72
2022/11/08 08:47:10;;;;;;;;;;;;;;;15.47;67.25;100652.52;116240;1300;22454;-72
2022/11/08 08:50:02;;;;;;;;;;;;;;;15.72;67.13;100655.73;116291;1304;22524;-72
2022/11/08 08:52:55;;;;;;;;;;;;;;;16.13;66.25;100657.18;116290;1298;22475;-72
2022/11/08 08:55:42;;;;;;;;;;;;;;;16.52;65.15;100659.69;116269;1284;22438;-73
2022/11/08 08:58:29;;;;;;;;;;;;;;;16.95;64.31;100664.95;115944;1277;490530;-73
2022/11/08 09:01:21;;;;;;;;;;;;;;;17.38;62.94;100661.29;116248;1289;24368;-72
2022/11/08 09:04:08;;;;;;;;;;;;;;;17.83;62.99;100656.02;116311;1279;22535;-72
2022/11/08 09:06:58;;;;;;;;;;;;;;;18.31;61.51;100654.98;116118;1290;22452;-72
2022/11/08 09:09:49;;;;;;;;;;;;;;;18.82;61.15;100652.32;116289;1304;22405;-73
2022/11/08 09:12:36;;;;;;;;;;;;;;;19.42;60.17;100656.83;116282;1279;22427;-73
2022/11/08 09:15:24;;;;;;;;;;;;;;;19.97;58.67;100654.55;116271;1300;22450;-73
2022/11/08 09:18:19;;;;;;;;;;;;;;;20.43;57.59;100653.28;116286;1306;22606;-71
2022/11/08 09:21:14;;;;;;;;;;;;;;;20.92;55.92;100660.25;116170;1305;24268;-70
2022/11/08 09:24:02;;;;;;;;;;;;;;;21.33;54.70;100654.94;116276;1284;22523;-72
2022/11/08 09:26:50;;;;;;;;;;;;;;;21.70;53.98;100654.13;116273;1302;22495;-73
2022/11/08 09:29:42;;;;;;;;;;;;;;;22.02;52.30;100658.63;116313;1280;22479;-72
2022/11/08 09:32:30;;;;;;;;;;;;;;;22.26;51.53;100653.69;116295;1304;24375;-75
2022/11/08 09:35:17;;;;;;;;;;;;;;;22.50;50.63;100662.02;116305;1304;22430;-75
2022/11/08 09:38:06;;;;;;;;;;;;;;;22.72;50.00;100659.79;116310;1304;22462;-76
2022/11/08 09:41:01;;;;;;;;;;;;;;;22.83;48.36;100656.90;116282;1287;25357;-76
2022/11/08 09:43:57;;;;;;;;;;;;;;;22.92;48.01;100657.75;116337;1281;22461;-76
2022/11/08 09:46:48;;;;;;;;;;;;;;;23.08;48.19;100659.63;116320;1285;22434;-76
2022/11/08 09:49:38;;;;;;;;;;;;;;;23.24;47.24;100657.70;116167;1306;22448;-76
2022/11/08 09:52:26;;;;;;;;;;;;;;;23.29;46.91;100656.19;116283;1303;22496;-76
2022/11/08 09:55:18;;;;;;;;;;;;;;;23.27;45.97;100652.30;116302;1298;22387;-77
2022/11/08 09:58:13;;;;;;;;;;;;;;;23.20;45.60;100656.94;116319;1304;23964;-76
2022/11/08 10:01:01;;;;;;;;;;;;;;;22.95;45.00;100655.57;116254;1306;24367;-74
2022/11/08 10:03:50;;;;;;;;;;;;;;;22.54;45.62;100656.91;116260;1298;25367;-75
2022/11/08 10:06:52;;;;;;;;;;;;;;;21.97;45.93;100654.09;116182;1301;22527;-75
2022/11/08 10:09:53;;;;;;;;;;;;;;;21.23;46.67;100652.47;116274;1304;22436;-76
2022/11/08 10:12:47;;;;;;;;;;;;;;;20.48;47.24;100653.22;116295;1298;25367;-77
2022/11/08 10:15:37;;;;;;;;;;;;;;;19.81;48.08;100650.20;116326;1304;24252;-74
2022/11/08 10:18:38;;;;;;;;;;;;;;;19.21;48.82;100645.95;116202;1306;23052;-74
2022/11/08 10:21:38;;;;;;;;;;;;;;;18.68;49.95;100651.52;116301;1293;22653;-74
2022/11/08 10:24:38;;;;;;;;;;;;;;;18.19;50.66;100651.55;116303;1297;22498;-75
2022/11/08 10:27:33;;;;;;;;;;;;;;;17.78;51.57;100645.52;116240;1299;22493;-75
2022/11/08 10:30:22;;;;;;;;;;;;;;;17.40;52.34;100648.08;116322;1283;22447;-75
2022/11/08 10:33:16;;;;;;;;;;;;;;;17.09;53.05;100650.71;116285;1291;22437;-75
2022/11/08 10:36:07;;;;;;;;;;;;;;;16.81;53.88;100649.77;116201;1301;23800;-75
2022/11/08 10:38:59;;;;;;;;;;;;;;;16.61;54.67;100649.86;116286;1304;22444;-73
2022/11/08 10:41:50;;;;;;;;;;;;;;;16.43;55.18;100652.83;116129;1287;22465;-73
2022/11/08 10:44:40;;;;;;;;;;;;;;;16.27;55.98;100643.54;116180;1306;22448;-73
2022/11/08 10:47:28;;;;;;;;;;;;;;;16.14;56.39;100642.50;116273;1295;22443;-74
2022/11/08 10:50:20;;;;;;;;;;;;;;;16.04;56.72;100639.91;116320;1304;22566;-75
2022/11/08 10:53:12;;;;;;;;;;;;;;;15.94;57.28;100634.30;116243;1306;22507;-75
2022/11/08 10:56:02;;;;;;;;;;;;;;;15.83;57.54;100631.94;116328;1296;22447;-73
2022/11/08 10:58:56;;;;;;;;;;;;;;;15.73;57.79;100625.09;116294;1304;24215;-74
2022/11/08 11:01:44;;;;;;;;;;;;;;;15.63;58.17;100621.93;116281;1306;24351;-74
2022/11/08 11:04:33;;;;;;;;;;;;;;;15.55;58.24;100625.23;116281;1301;22507;-74
2022/11/08 11:07:33;;;;;;;;;;;;;;;15.45;58.51;100625.36;116278;1298;22445;-73
2022/11/08 11:10:25;;;;;;;;;;;;;;;15.37;58.76;100620.52;116287;1297;22466;-74
2022/11/08 11:13:14;;;;;;;;;;;;;;;15.29;58.96;100615.55;116289;1306;22431;-74
2022/11/08 11:16:03;;;;;;;;;;;;;;;15.21;59.52;100609.43;116250;1304;22516;-75
2022/11/08 11:18:50;;;;;;;;;;;;;;;15.17;59.74;100605.77;116272;1298;22436;-74
2022/11/08 11:21:41;;;;;;;;;;;;;;;15.11;59.97;100604.86;116234;1287;22437;-75
2022/11/08 11:24:29;;;;;;;;;;;;;;;15.04;60.07;100600.88;116193;1280;22486;-75
2022/11/08 11:27:20;;;;;;;;;;;;;;;15.01;60.50;100596.81;116245;1298;22447;-73
2022/11/08 11:30:29;;;;;;;;;;;;;;;14.98;60.52;100597.11;116284;1298;22469;-73
2022/11/08 11:33:26;;;;;;;;;;;;;;;14.95;60.72;100596.92;116174;1299;22451;-74
2022/11/08 11:36:19;;;;;;;;;;;;;;;14.93;60.81;100597.39;116269;1293;22448;-75
2022/11/08 11:39:12;;;;;;;;;;;;;;;14.90;60.98;100597.20;116302;1301;22441;-73
2022/11/08 11:42:04;;;;;;;;;;;;;;;14.87;61.14;100597.52;116151;1305;24240;-74
2022/11/08 11:45:00;;;;;;;;;;;;;;;14.83;60.89;100598.08;116311;1306;22595;-74
2022/11/08 11:47:54;;;;;;;;;;;;;;;14.80;61.06;100601.41;116303;1287;22463;-73
2022/11/08 11:50:41;;;;;;;;;;;;;;;14.77;61.16;100603.13;116228;1306;22448;-72
2022/11/08 11:53:32;;;;;;;;;;;;;;;14.74;60.72;100601.55;116282;1305;22467;-72
2022/11/08 11:56:41;;;;;;;;;;;;;;;14.69;60.35;100604.09;116284;1290;22503;-72
2022/11/08 11:59:51;;;;;;;;;;;;;;;14.65;60.70;100601.51;116282;1304;22443;-74
2022/11/08 12:03:14;;;;;;;;;;;;;;;14.60;60.63;100597.52;116266;1284;22591;-74
2022/11/08 12:06:17;;;;;;;;;;;;;;;14.55;60.66;100600.23;116288;1290;22445;-73
2022/11/08 12:09:13;;;;;;;;;;;;;;;14.51;60.68;100598.33;116152;1306;22440;-72
2022/11/08 12:12:09;;;;;;;;;;;;;;;14.47;60.70;100598.35;116277;1303;22449;-73
2022/11/08 12:15:03;;;;;;;;;;;;;;;14.43;60.80;100600.11;116284;1306;24397;-73
2022/11/08 12:18:12;;;;;;;;;;;;;;;14.40;60.94;100598.87;116333;1298;22446;-72
2022/11/08 12:21:07;;;;;;;;;;;;;;;14.38;60.90;100594.57;116293;1304;22456;-73
2022/11/08 12:24:25;;;;;;;;;;;;;;;14.35;60.88;100594.70;116326;1293;22539;-73
2022/11/08 12:27:19;;;;;;;;;;;;;;;14.32;60.78;100601.75;116262;1298;25306;-74
2022/11/08 12:30:09;;;;;;;;;;;;;;;14.27;60.84;100595.67;116180;1305;22496;-74
2022/11/08 12:33:16;;;;;;;;;;;;;;;14.22;60.81;100588.52;116320;1294;22687;-73
2022/11/08 12:36:13;;;;;;;;;;;;;;;14.18;61.07;100586.80;116122;1302;25339;-73
2022/11/08 12:39:05;;;;;;;;;;;;;;;14.13;61.08;100584.05;116200;1306;24281;-73
2022/11/08 12:41:56;;;;;;;;;;;;;;;14.09;61.38;100583.40;116278;1284;22810;-73
2022/11/08 12:45:15;;;;;;;;;;;;;;;14.04;61.44;100583.12;116269;1299;22520;-69
2022/11/08 12:48:06;;;;;;;;;;;;;;;13.99;61.61;100582.13;116299;1305;22504;-72
2022/11/08 12:50:59;;;;;;;;;;;;;;;13.96;61.60;100579.31;116275;1298;25283;-71
2022/11/08 12:54:04;;;;;;;;;;;;;;;13.91;61.61;100577.73;116325;1290;22540;-72
2022/11/08 12:56:51;;;;;;;;;;;;;;;13.86;61.76;100576.42;116286;1296;22512;-70
2022/11/08 12:59:41;;;;;;;;;;;;;;;13.82;61.93;100577.36;116278;1290;22450;-72
2022/11/08 13:02:36;;;;;;;;;;;;;;;13.77;62.26;100580.00;116303;1287;22448;-71
2022/11/08 13:05:25;;;;;;;;;;;;;;;13.74;62.29;100576.34;116280;1294;22549;-70
2022/11/08 13:08:18;;;;;;;;;;;;;;;13.70;62.36;100575.28;116284;1306;22563;-73
2022/11/08 13:11:09;;;;;;;;;;;;;;;13.66;62.41;100578.80;116266;1294;22459;-71
2022/11/08 13:14:00;;;;;;;;;;;;;;;13.62;62.47;100575.30;116332;1306;22433;-72
2022/11/08 13:17:09;;;;;;;;;;;;;;;13.58;62.53;100574.23;116331;1287;22604;-73
2022/11/08 13:20:03;;;;;;;;;;;;;;;13.55;62.69;100567.42;116302;1298;22523;-72
2022/11/08 13:23:00;;;;;;;;;;;;;;;13.49;62.78;100563.12;116251;1305;22451;-70
2022/11/08 13:25:50;;;;;;;;;;;;;;;13.43;63.09;100564.61;116268;1306;24263;-72
2022/11/08 13:28:45;;;;;;;;;;;;;;;13.39;63.20;100559.57;116291;1287;22464;-72
2022/11/08 13:31:50;;;;;;;;;;;;;;;13.34;63.43;100554.02;116255;1278;22392;-72
2022/11/08 13:34:48;;;;;;;;;;;;;;;13.27;63.71;100553.98;116281;1287;22451;-73
2022/11/08 13:37:44;;;;;;;;;;;;;;;13.24;63.83;100557.29;116272;1291;23876;-69
2022/11/08 13:40:49;;;;;;;;;;;;;;;13.21;63.81;100557.23;116316;1294;24549;-72
2022/11/08 13:43:36;;;;;;;;;;;;;;;13.15;64.11;100560.61;116287;1305;22465;-72
2022/11/08 13:47:00;;;;;;;;;;;;;;;13.10;64.43;100558.92;116236;1300;25373;-72
2022/11/08 13:49:47;;;;;;;;;;;;;;;13.05;64.44;100564.96;116312;1306;22581;-71
2022/11/08 13:52:47;;;;;;;;;;;;;;;13.01;64.74;100559.52;116124;1283;25905;-71
2022/11/08 13:55:47;;;;;;;;;;;;;;;12.95;64.86;100564.17;116312;1304;22441;-72
2022/11/08 13:58:36;;;;;;;;;;;;;;;12.88;65.19;100560.64;116300;1288;22426;-71
2022/11/08 14:01:58;;;;;;;;;;;;;;;12.81;65.49;100565.83;116274;1290;24273;-72
2022/11/08 14:04:52;;;;;;;;;;;;;;;12.75;65.79;100567.14;116273;1306;22439;-71
2022/11/08 14:07:42;;;;;;;;;;;;;;;12.70;65.85;100560.55;116272;1306;24260;-72
2022/11/08 14:10:31;;;;;;;;;;;;;;;12.65;66.12;100563.23;116278;1298;22443;-75
2022/11/08 14:13:22;;;;;;;;;;;;;;;12.59;66.25;100565.77;116141;1287;22416;-74
2022/11/08 14:16:19;;;;;;;;;;;;;;;12.52;66.47;100563.58;116127;1303;22586;-70
2022/11/08 14:19:21;;;;;;;;;;;;;;;12.45;66.92;100560.60;116276;1287;22460;-71
2022/11/08 14:22:15;;;;;;;;;;;;;;;12.37;67.13;100559.15;116264;1303;22405;-70
2022/11/08 14:25:13;;;;;;;;;;;;;;;12.29;67.32;100562.15;116308;1299;22442;-70
2022/11/08 14:28:04;;;;;;;;;;;;;;;12.19;67.44;100563.27;116284;1299;22485;-72
2022/11/08 14:30:57;;;;;;;;;;;;;;;12.13;67.98;100567.52;116150;1286;22456;-71
2022/11/08 14:33:49;;;;;;;;;;;;;;;12.10;68.18;100569.40;116272;1293;24932;-71
2022/11/08 14:36:36;;;;;;;;;;;;;;;12.09;68.39;100573.29;116231;1297;22434;-71
2022/11/08 14:39:25;;;;;;;;;;;;;;;12.05;68.62;100575.19;116242;1306;22458;-71
2022/11/08 14:42:19;;;;;;;;;;;;;;;12.00;68.80;100578.55;116248;1305;22448;-71
2022/11/08 14:45:12;;;;;;;;;;;;;;;11.94;68.99;100582.13;116292;1299;22464;-74
2022/11/08 14:48:03;;;;;;;;;;;;;;;11.86;69.03;100580.65;116305;1305;22475;-70
2022/11/08 14:51:03;;;;;;;;;;;;;;;11.76;69.27;100581.77;116287;1306;22439;-72